sensor_id;sensor_type;location;lat;lon;timestamp;pressure;altitude;pressure_sealevel;temperature;humidity
63663;BME280;49815;51.618;0.336;2022-08-19T00:02:18;100560.91;;;19.90;48.93
63663;BME280;49815;51.618;0.336;2022-08-19T00:04:43;100561.87;;;20.00;49.19
63663;BME280;49815;51.618;0.336;2022-08-19T00:07:09;100566.46;;;19.81;49.17
63663;BME280;49815;51.618;0.336;2022-08-19T00:09:33;100566.28;;;20.38;49.07
63663;BME280;49815;51.618;0.336;2022-08-19T00:12:00;100567.98;;;20.22;49.05
63663;BME280;49815;51.618;0.336;2022-08-19T00:14:25;100571.20;;;20.22;48.80
63663;BME280;49815;51.618;0.336;2022-08-19T00:16:49;100572.92;;;20.34;48.62
63663;BME280;49815;51.618;0.336;2022-08-19T00:19:15;100574.08;;;20.35;48.66
63663;BME280;49815;51.618;0.336;2022-08-19T00:21:40;100568.25;;;20.37;49.64
63663;BME280;49815;51.618;0.336;2022-08-19T00:24:05;100568.45;;;20.33;49.38
63663;BME280;49815;51.618;0.336;2022-08-19T00:26:30;100568.16;;;20.01;49.47
63663;BME280;49815;51.618;0.336;2022-08-19T00:28:55;100565.04;;;20.12;49.40
63663;BME280;49815;51.618;0.336;2022-08-19T00:31:20;100562.63;;;20.48;48.85
63663;BME280;49815;51.618;0.336;2022-08-19T00:33:45;100563.60;;;20.39;48.75
63663;BME280;49815;51.618;0.336;2022-08-19T00:36:11;100562.11;;;20.92;48.41
63663;BME280;49815;51.618;0.336;2022-08-19T00:38:38;100558.38;;;21.00;48.29
63663;BME280;49815;51.618;0.336;2022-08-19T00:41:01;100551.38;;;21.13;48.20
63663;BME280;49815;51.618;0.336;2022-08-19T00:43:27;100552.58;;;20.59;48.39
63663;BME280;49815;51.618;0.336;2022-08-19T00:45:51;100547.54;;;20.77;48.60
63663;BME280;49815;51.618;0.336;2022-08-19T00:48:17;100549.73;;;20.50;49.59
63663;BME280;49815;51.618;0.336;2022-08-19T00:50:42;100548.16;;;20.09;50.08
63663;BME280;49815;51.618;0.336;2022-08-19T00:53:08;100544.54;;;20.49;49.97
63663;BME280;49815;51.618;0.336;2022-08-19T00:55:32;100546.80;;;20.03;50.88
63663;BME280;49815;51.618;0.336;2022-08-19T00:58:01;100545.87;;;20.00;51.11
63663;BME280;49815;51.618;0.336;2022-08-19T01:00:25;100543.27;;;20.46;50.37
63663;BME280;49815;51.618;0.336;2022-08-19T01:05:17;100550.21;;;20.73;49.35
63663;BME280;49815;51.618;0.336;2022-08-19T01:07:40;100551.26;;;20.24;49.80
63663;BME280;49815;51.618;0.336;2022-08-19T01:10:06;100559.31;;;20.44;50.36
63663;BME280;49815;51.618;0.336;2022-08-19T01:12:30;100557.80;;;20.33;50.63
63663;BME280;49815;51.618;0.336;2022-08-19T01:14:55;100560.68;;;20.27;50.76
63663;BME280;49815;51.618;0.336;2022-08-19T01:17:20;100561.24;;;20.40;50.59
63663;BME280;49815;51.618;0.336;2022-08-19T01:19:45;100555.02;;;20.21;50.86
63663;BME280;49815;51.618;0.336;2022-08-19T01:22:14;100554.93;;;20.28;50.79
63663;BME280;49815;51.618;0.336;2022-08-19T01:24:35;100554.30;;;20.10;51.11
63663;BME280;49815;51.618;0.336;2022-08-19T01:27:03;100553.53;;;20.15;51.02
63663;BME280;49815;51.618;0.336;2022-08-19T01:29:25;100551.22;;;19.93;51.48
63663;BME280;49815;51.618;0.336;2022-08-19T01:31:50;100553.43;;;20.30;50.93
63663;BME280;49815;51.618;0.336;2022-08-19T01:34:15;100552.79;;;20.17;51.17
63663;BME280;49815;51.618;0.336;2022-08-19T01:36:43;100557.45;;;20.05;51.59
63663;BME280;49815;51.618;0.336;2022-08-19T01:39:09;100556.86;;;20.29;51.17
63663;BME280;49815;51.618;0.336;2022-08-19T01:41:31;100558.57;;;20.20;51.48
63663;BME280;49815;51.618;0.336;2022-08-19T01:43:56;100550.62;;;20.28;51.08
63663;BME280;49815;51.618;0.336;2022-08-19T01:46:21;100551.76;;;19.96;52.23
63663;BME280;49815;51.618;0.336;2022-08-19T01:48:47;100547.97;;;20.15;52.93
63663;BME280;49815;51.618;0.336;2022-08-19T01:51:13;100549.00;;;19.66;53.94
63663;BME280;49815;51.618;0.336;2022-08-19T01:53:39;100549.37;;;19.65;54.12
63663;BME280;49815;51.618;0.336;2022-08-19T01:56:05;100549.87;;;20.02;53.53
63663;BME280;49815;51.618;0.336;2022-08-19T01:58:30;100550.65;;;19.80;53.47
63663;BME280;49815;51.618;0.336;2022-08-19T02:00:53;100553.99;;;20.03;52.68
63663;BME280;49815;51.618;0.336;2022-08-19T02:03:18;100551.48;;;20.15;52.45
63663;BME280;49815;51.618;0.336;2022-08-19T02:05:44;100550.15;;;20.08;52.54
63663;BME280;49815;51.618;0.336;2022-08-19T02:08:08;100551.13;;;20.14;52.44
63663;BME280;49815;51.618;0.336;2022-08-19T02:10:37;100551.63;;;20.23;52.22
63663;BME280;49815;51.618;0.336;2022-08-19T02:13:00;100553.76;;;20.03;52.61
63663;BME280;49815;51.618;0.336;2022-08-19T02:15:24;100553.75;;;19.83;52.55
63663;BME280;49815;51.618;0.336;2022-08-19T02:17:49;100547.61;;;20.05;52.61
63663;BME280;49815;51.618;0.336;2022-08-19T02:20:15;100544.89;;;19.98;53.23
63663;BME280;49815;51.618;0.336;2022-08-19T02:22:40;100546.21;;;19.78;53.11
63663;BME280;49815;51.618;0.336;2022-08-19T02:25:05;100545.99;;;20.06;52.61
63663;BME280;49815;51.618;0.336;2022-08-19T02:27:30;100547.90;;;20.31;52.10
63663;BME280;49815;51.618;0.336;2022-08-19T02:29:55;100544.06;;;20.29;51.66
63663;BME280;49815;51.618;0.336;2022-08-19T02:32:20;100541.67;;;20.26;51.25
63663;BME280;49815;51.618;0.336;2022-08-19T02:34:46;100546.28;;;20.43;50.90
63663;BME280;49815;51.618;0.336;2022-08-19T02:37:11;100550.11;;;20.87;50.67
63663;BME280;49815;51.618;0.336;2022-08-19T02:39:38;100553.52;;;20.72;50.44
63663;BME280;49815;51.618;0.336;2022-08-19T02:42:01;100551.95;;;20.73;50.50
63663;BME280;49815;51.618;0.336;2022-08-19T02:44:27;100544.35;;;21.08;49.98
63663;BME280;49815;51.618;0.336;2022-08-19T02:46:52;100547.59;;;20.91;50.07
63663;BME280;49815;51.618;0.336;2022-08-19T02:49:17;100548.08;;;20.38;50.95
63663;BME280;49815;51.618;0.336;2022-08-19T02:51:44;100548.16;;;20.62;50.62
63663;BME280;49815;51.618;0.336;2022-08-19T02:54:09;100551.71;;;20.55;50.55
63663;BME280;49815;51.618;0.336;2022-08-19T02:56:35;100554.22;;;20.53;50.61
63663;BME280;49815;51.618;0.336;2022-08-19T02:58:58;100557.26;;;20.58;50.45
63663;BME280;49815;51.618;0.336;2022-08-19T03:01:24;100558.70;;;20.68;50.28
63663;BME280;49815;51.618;0.336;2022-08-19T03:03:48;100566.52;;;20.57;50.24
63663;BME280;49815;51.618;0.336;2022-08-19T03:06:15;100568.93;;;20.50;50.79
63663;BME280;49815;51.618;0.336;2022-08-19T03:08:40;100567.55;;;20.34;50.26
63663;BME280;49815;51.618;0.336;2022-08-19T03:11:04;100567.45;;;20.43;50.54
63663;BME280;49815;51.618;0.336;2022-08-19T03:13:30;100564.96;;;20.85;50.42
63663;BME280;49815;51.618;0.336;2022-08-19T03:15:55;100564.80;;;20.87;50.50
63663;BME280;49815;51.618;0.336;2022-08-19T03:18:20;100563.87;;;20.62;50.79
63663;BME280;49815;51.618;0.336;2022-08-19T03:20:47;100563.72;;;20.96;50.81
63663;BME280;49815;51.618;0.336;2022-08-19T03:23:11;100564.90;;;20.71;50.85
63663;BME280;49815;51.618;0.336;2022-08-19T03:25:38;100563.73;;;20.18;51.80
63663;BME280;49815;51.618;0.336;2022-08-19T03:28:00;100565.25;;;20.55;51.69
63663;BME280;49815;51.618;0.336;2022-08-19T03:30:26;100565.06;;;20.60;51.57
63663;BME280;49815;51.618;0.336;2022-08-19T03:32:51;100565.73;;;20.47;51.43
63663;BME280;49815;51.618;0.336;2022-08-19T03:35:17;100565.95;;;20.37;51.58
63663;BME280;49815;51.618;0.336;2022-08-19T03:37:41;100567.49;;;20.37;51.20
63663;BME280;49815;51.618;0.336;2022-08-19T03:40:07;100564.91;;;20.60;51.27
63663;BME280;49815;51.618;0.336;2022-08-19T03:42:32;100565.65;;;20.76;51.25
63663;BME280;49815;51.618;0.336;2022-08-19T03:44:57;100564.48;;;20.90;50.71
63663;BME280;49815;51.618;0.336;2022-08-19T03:47:23;100562.58;;;20.94;50.21
63663;BME280;49815;51.618;0.336;2022-08-19T03:49:47;100565.51;;;20.80;50.49
63663;BME280;49815;51.618;0.336;2022-08-19T03:52:13;100564.04;;;21.12;50.14
63663;BME280;49815;51.618;0.336;2022-08-19T03:54:39;100564.00;;;20.57;50.35
63663;BME280;49815;51.618;0.336;2022-08-19T03:57:03;100564.99;;;21.04;50.40
63663;BME280;49815;51.618;0.336;2022-08-19T03:59:30;100567.22;;;20.80;50.80
63663;BME280;49815;51.618;0.336;2022-08-19T04:01:54;100562.40;;;20.95;50.54
63663;BME280;49815;51.618;0.336;2022-08-19T04:04:18;100562.73;;;20.83;50.73
63663;BME280;49815;51.618;0.336;2022-08-19T04:06:44;100561.88;;;20.80;50.79
63663;BME280;49815;51.618;0.336;2022-08-19T04:09:11;100562.65;;;20.92;50.54
63663;BME280;49815;51.618;0.336;2022-08-19T04:11:38;100562.97;;;21.04;50.42
63663;BME280;49815;51.618;0.336;2022-08-19T04:14:00;100566.07;;;20.79;50.92
63663;BME280;49815;51.618;0.336;2022-08-19T04:16:26;100566.22;;;20.65;51.17
63663;BME280;49815;51.618;0.336;2022-08-19T04:18:51;100569.28;;;20.65;51.76
63663;BME280;49815;51.618;0.336;2022-08-19T04:21:17;100569.18;;;20.65;51.32
63663;BME280;49815;51.618;0.336;2022-08-19T04:23:40;100566.38;;;20.20;51.39
63663;BME280;49815;51.618;0.336;2022-08-19T04:26:06;100567.94;;;20.58;51.67
63663;BME280;49815;51.618;0.336;2022-08-19T04:28:31;100566.27;;;20.59;51.81
63663;BME280;49815;51.618;0.336;2022-08-19T04:30:56;100564.27;;;20.84;51.41
63663;BME280;49815;51.618;0.336;2022-08-19T04:33:23;100560.76;;;21.15;51.01
63663;BME280;49815;51.618;0.336;2022-08-19T04:35:48;100562.85;;;21.13;50.54
63663;BME280;49815;51.618;0.336;2022-08-19T04:38:12;100561.14;;;20.83;51.20
63663;BME280;49815;51.618;0.336;2022-08-19T04:40:41;100566.07;;;20.95;51.42
63663;BME280;49815;51.618;0.336;2022-08-19T04:43:02;100560.57;;;21.11;50.86
63663;BME280;49815;51.618;0.336;2022-08-19T04:45:28;100562.66;;;21.16;50.59
63663;BME280;49815;51.618;0.336;2022-08-19T04:47:55;100565.57;;;20.99;50.47
63663;BME280;49815;51.618;0.336;2022-08-19T04:50:18;100566.08;;;21.03;50.85
63663;BME280;49815;51.618;0.336;2022-08-19T04:52:43;100568.23;;;21.54;50.57
63663;BME280;49815;51.618;0.336;2022-08-19T04:55:09;100572.23;;;21.21;50.01
63663;BME280;49815;51.618;0.336;2022-08-19T04:57:34;100576.35;;;21.25;50.30
63663;BME280;49815;51.618;0.336;2022-08-19T04:59:59;100578.94;;;21.03;50.10
63663;BME280;49815;51.618;0.336;2022-08-19T05:02:24;100579.41;;;21.15;50.27
63663;BME280;49815;51.618;0.336;2022-08-19T05:04:49;100580.97;;;21.10;50.42
63663;BME280;49815;51.618;0.336;2022-08-19T05:07:14;100580.99;;;21.16;51.03
63663;BME280;49815;51.618;0.336;2022-08-19T05:09:40;100580.69;;;20.77;51.77
63663;BME280;49815;51.618;0.336;2022-08-19T05:12:05;100578.92;;;21.29;51.91
63663;BME280;49815;51.618;0.336;2022-08-19T05:14:30;100577.72;;;21.26;52.25
63663;BME280;49815;51.618;0.336;2022-08-19T05:16:56;100582.17;;;20.69;52.82
63663;BME280;49815;51.618;0.336;2022-08-19T05:19:21;100588.09;;;20.69;53.54
63663;BME280;49815;51.618;0.336;2022-08-19T05:21:46;100596.91;;;20.16;55.41
63663;BME280;49815;51.618;0.336;2022-08-19T05:24:12;100597.43;;;20.10;54.85
63663;BME280;49815;51.618;0.336;2022-08-19T05:26:39;100596.27;;;20.03;54.76
63663;BME280;49815;51.618;0.336;2022-08-19T05:29:02;100597.23;;;20.57;54.49
63663;BME280;49815;51.618;0.336;2022-08-19T05:31:26;100597.43;;;20.39;54.90
63663;BME280;49815;51.618;0.336;2022-08-19T05:33:52;100602.05;;;20.37;54.81
63663;BME280;49815;51.618;0.336;2022-08-19T05:36:17;100600.42;;;20.46;54.75
63663;BME280;49815;51.618;0.336;2022-08-19T05:38:42;100596.24;;;21.01;54.24
63663;BME280;49815;51.618;0.336;2022-08-19T05:41:08;100599.78;;;20.64;54.35
63663;BME280;49815;51.618;0.336;2022-08-19T05:43:32;100599.64;;;20.63;54.21
63663;BME280;49815;51.618;0.336;2022-08-19T05:45:58;100602.39;;;20.66;54.09
63663;BME280;49815;51.618;0.336;2022-08-19T05:48:23;100605.40;;;20.88;53.77
63663;BME280;49815;51.618;0.336;2022-08-19T05:50:48;100605.31;;;21.28;53.60
63663;BME280;49815;51.618;0.336;2022-08-19T05:53:13;100606.15;;;21.25;53.11
63663;BME280;49815;51.618;0.336;2022-08-19T05:55:38;100607.96;;;20.85;52.66
63663;BME280;49815;51.618;0.336;2022-08-19T05:58:04;100605.79;;;21.36;52.84
63663;BME280;49815;51.618;0.336;2022-08-19T06:00:29;100604.27;;;21.29;52.21
63663;BME280;49815;51.618;0.336;2022-08-19T06:02:54;100604.99;;;21.31;52.25
63663;BME280;49815;51.618;0.336;2022-08-19T06:05:19;100608.64;;;21.02;52.45
63663;BME280;49815;51.618;0.336;2022-08-19T06:07:44;100611.75;;;21.43;52.36
63663;BME280;49815;51.618;0.336;2022-08-19T06:10:11;100608.69;;;21.24;52.31
63663;BME280;49815;51.618;0.336;2022-08-19T06:12:36;100607.81;;;21.17;52.95
63663;BME280;49815;51.618;0.336;2022-08-19T06:15:02;100603.35;;;21.60;52.65
63663;BME280;49815;51.618;0.336;2022-08-19T06:17:25;100607.04;;;20.72;53.59
63663;BME280;49815;51.618;0.336;2022-08-19T06:19:51;100599.70;;;20.99;53.20
63663;BME280;49815;51.618;0.336;2022-08-19T06:22:16;100598.08;;;21.14;52.10
63663;BME280;49815;51.618;0.336;2022-08-19T06:24:41;100593.54;;;20.93;51.83
63663;BME280;49815;51.618;0.336;2022-08-19T06:27:06;100595.40;;;20.85;51.09
63663;BME280;49815;51.618;0.336;2022-08-19T06:29:32;100594.10;;;20.81;51.23
63663;BME280;49815;51.618;0.336;2022-08-19T06:31:58;100600.49;;;21.37;50.05
63663;BME280;49815;51.618;0.336;2022-08-19T06:34:22;100600.31;;;22.43;48.14
63663;BME280;49815;51.618;0.336;2022-08-19T06:36:49;100602.12;;;22.17;47.52
63663;BME280;49815;51.618;0.336;2022-08-19T06:39:14;100610.10;;;21.84;48.22
63663;BME280;49815;51.618;0.336;2022-08-19T06:41:40;100606.52;;;21.53;47.87
63663;BME280;49815;51.618;0.336;2022-08-19T06:44:03;100608.73;;;21.49;47.31
63663;BME280;49815;51.618;0.336;2022-08-19T06:46:27;100612.66;;;22.05;46.90
63663;BME280;49815;51.618;0.336;2022-08-19T06:48:52;100611.03;;;24.27;42.82
63663;BME280;49815;51.618;0.336;2022-08-19T06:51:18;100612.59;;;24.56;40.40
63663;BME280;49815;51.618;0.336;2022-08-19T06:53:42;100607.06;;;23.79;40.74
63663;BME280;49815;51.618;0.336;2022-08-19T06:56:07;100613.67;;;24.24;40.60
63663;BME280;49815;51.618;0.336;2022-08-19T06:58:32;100604.17;;;26.02;37.13
63663;BME280;49815;51.618;0.336;2022-08-19T07:01:00;100598.37;;;27.46;34.68
63663;BME280;49815;51.618;0.336;2022-08-19T07:03:24;100605.25;;;29.56;31.70
63663;BME280;49815;51.618;0.336;2022-08-19T07:05:50;100607.53;;;29.71;30.38
63663;BME280;49815;51.618;0.336;2022-08-19T07:08:15;100616.66;;;27.57;33.31
63663;BME280;49815;51.618;0.336;2022-08-19T07:10:43;100616.40;;;25.84;34.58
63663;BME280;49815;51.618;0.336;2022-08-19T07:13:07;100621.85;;;24.70;37.13
63663;BME280;49815;51.618;0.336;2022-08-19T07:15:32;100625.93;;;23.57;38.85
63663;BME280;49815;51.618;0.336;2022-08-19T07:17:57;100628.45;;;23.43;39.63
63663;BME280;49815;51.618;0.336;2022-08-19T07:20:23;100624.76;;;23.44;40.27
63663;BME280;49815;51.618;0.336;2022-08-19T07:22:47;100628.54;;;22.92;40.49
63663;BME280;49815;51.618;0.336;2022-08-19T07:25:13;100624.27;;;22.76;40.42
63663;BME280;49815;51.618;0.336;2022-08-19T07:27:38;100622.02;;;23.07;39.92
63663;BME280;49815;51.618;0.336;2022-08-19T07:30:03;100626.65;;;22.54;39.61
63663;BME280;49815;51.618;0.336;2022-08-19T07:32:28;100624.93;;;23.47;38.71
63663;BME280;49815;51.618;0.336;2022-08-19T07:34:53;100627.69;;;23.38;38.39
63663;BME280;49815;51.618;0.336;2022-08-19T07:37:18;100623.42;;;23.58;37.60
63663;BME280;49815;51.618;0.336;2022-08-19T07:39:43;100623.40;;;23.90;36.70
63663;BME280;49815;51.618;0.336;2022-08-19T07:42:10;100625.99;;;23.40;36.40
63663;BME280;49815;51.618;0.336;2022-08-19T07:44:34;100632.42;;;22.49;38.29
63663;BME280;49815;51.618;0.336;2022-08-19T07:46:59;100639.73;;;21.45;39.92
63663;BME280;49815;51.618;0.336;2022-08-19T07:49:24;100638.52;;;22.12;38.35
63663;BME280;49815;51.618;0.336;2022-08-19T07:51:51;100636.34;;;21.48;39.64
63663;BME280;49815;51.618;0.336;2022-08-19T07:54:14;100633.63;;;20.84;40.67
63663;BME280;49815;51.618;0.336;2022-08-19T07:56:39;100635.76;;;22.17;38.58
63663;BME280;49815;51.618;0.336;2022-08-19T07:59:04;100641.63;;;22.73;37.21
63663;BME280;49815;51.618;0.336;2022-08-19T08:01:29;100643.06;;;23.15;36.67
63663;BME280;49815;51.618;0.336;2022-08-19T08:03:56;100648.79;;;22.80;36.85
63663;BME280;49815;51.618;0.336;2022-08-19T08:06:19;100651.79;;;23.33;36.75
63663;BME280;49815;51.618;0.336;2022-08-19T08:08:44;100645.70;;;23.84;36.09
63663;BME280;49815;51.618;0.336;2022-08-19T08:11:10;100641.15;;;23.65;36.06
63663;BME280;49815;51.618;0.336;2022-08-19T08:13:35;100644.06;;;22.82;37.55
63663;BME280;49815;51.618;0.336;2022-08-19T08:16:01;100641.98;;;23.53;36.89
63663;BME280;49815;51.618;0.336;2022-08-19T08:18:25;100643.48;;;23.28;37.04
63663;BME280;49815;51.618;0.336;2022-08-19T08:20:50;100646.61;;;23.33;36.93
63663;BME280;49815;51.618;0.336;2022-08-19T08:23:15;100652.80;;;23.64;36.69
63663;BME280;49815;51.618;0.336;2022-08-19T08:25:40;100645.42;;;23.20;37.35
63663;BME280;49815;51.618;0.336;2022-08-19T08:28:05;100656.05;;;22.95;37.33
63663;BME280;49815;51.618;0.336;2022-08-19T08:30:31;100648.64;;;22.52;38.29
63663;BME280;49815;51.618;0.336;2022-08-19T08:32:56;100649.12;;;23.07;37.46
63663;BME280;49815;51.618;0.336;2022-08-19T08:35:23;100648.09;;;23.16;37.49
63663;BME280;49815;51.618;0.336;2022-08-19T08:37:48;100655.26;;;22.62;37.56
63663;BME280;49815;51.618;0.336;2022-08-19T08:40:18;100650.81;;;23.18;37.07
63663;BME280;49815;51.618;0.336;2022-08-19T08:42:55;100650.03;;;23.28;36.53
63663;BME280;49815;51.618;0.336;2022-08-19T08:45:05;100644.16;;;23.32;36.50
63663;BME280;49815;51.618;0.336;2022-08-19T08:47:30;100645.48;;;23.46;36.53
63663;BME280;49815;51.618;0.336;2022-08-19T08:49:55;100646.80;;;23.88;35.67
63663;BME280;49815;51.618;0.336;2022-08-19T08:52:21;100653.06;;;24.09;35.51
63663;BME280;49815;51.618;0.336;2022-08-19T08:54:43;100652.27;;;23.69;35.68
63663;BME280;49815;51.618;0.336;2022-08-19T08:57:11;100654.65;;;24.38;35.10
63663;BME280;49815;51.618;0.336;2022-08-19T08:59:35;100656.22;;;23.84;35.43
63663;BME280;49815;51.618;0.336;2022-08-19T09:01:57;100657.03;;;23.67;35.16
63663;BME280;49815;51.618;0.336;2022-08-19T09:04:22;100653.85;;;23.80;35.06
63663;BME280;49815;51.618;0.336;2022-08-19T09:06:54;100656.24;;;23.48;34.89
63663;BME280;49815;51.618;0.336;2022-08-19T09:09:16;100654.82;;;23.19;35.05
63663;BME280;49815;51.618;0.336;2022-08-19T09:11:48;100654.59;;;21.65;36.29
63663;BME280;49815;51.618;0.336;2022-08-19T09:14:09;100655.89;;;21.25;37.13
63663;BME280;49815;51.618;0.336;2022-08-19T09:16:28;100649.81;;;21.74;36.92
63663;BME280;49815;51.618;0.336;2022-08-19T09:18:55;100649.23;;;22.07;36.58
63663;BME280;49815;51.618;0.336;2022-08-19T09:21:18;100654.84;;;22.01;36.14
63663;BME280;49815;51.618;0.336;2022-08-19T09:23:43;100660.79;;;21.57;37.18
63663;BME280;49815;51.618;0.336;2022-08-19T09:26:10;100658.39;;;21.41;37.59
63663;BME280;49815;51.618;0.336;2022-08-19T09:28:33;100652.58;;;21.98;36.43
63663;BME280;49815;51.618;0.336;2022-08-19T09:30:59;100648.31;;;22.33;36.78
63663;BME280;49815;51.618;0.336;2022-08-19T09:33:24;100645.50;;;23.11;35.83
63663;BME280;49815;51.618;0.336;2022-08-19T09:35:49;100646.78;;;23.35;34.53
63663;BME280;49815;51.618;0.336;2022-08-19T09:38:14;100648.12;;;23.69;33.95
63663;BME280;49815;51.618;0.336;2022-08-19T09:40:39;100655.22;;;22.79;34.94
63663;BME280;49815;51.618;0.336;2022-08-19T09:43:04;100652.49;;;22.64;35.56
63663;BME280;49815;51.618;0.336;2022-08-19T09:45:29;100648.72;;;22.20;35.80
63663;BME280;49815;51.618;0.336;2022-08-19T09:47:54;100651.29;;;22.97;35.46
63663;BME280;49815;51.618;0.336;2022-08-19T09:50:20;100649.33;;;22.18;36.50
63663;BME280;49815;51.618;0.336;2022-08-19T09:52:45;100641.50;;;23.47;35.35
63663;BME280;49815;51.618;0.336;2022-08-19T09:55:11;100641.74;;;24.13;34.79
63663;BME280;49815;51.618;0.336;2022-08-19T09:57:35;100646.61;;;24.17;34.28
63663;BME280;49815;51.618;0.336;2022-08-19T10:00:00;100650.79;;;24.18;34.39
63663;BME280;49815;51.618;0.336;2022-08-19T10:02:25;100652.92;;;23.57;35.07
63663;BME280;49815;51.618;0.336;2022-08-19T10:04:50;100648.33;;;24.02;34.38
63663;BME280;49815;51.618;0.336;2022-08-19T10:07:15;100649.21;;;22.50;36.64
63663;BME280;49815;51.618;0.336;2022-08-19T10:09:40;100655.70;;;23.36;35.83
63663;BME280;49815;51.618;0.336;2022-08-19T10:12:06;100654.23;;;23.79;34.91
63663;BME280;49815;51.618;0.336;2022-08-19T10:14:30;100657.98;;;24.43;33.92
63663;BME280;49815;51.618;0.336;2022-08-19T10:16:55;100656.87;;;24.37;34.16
63663;BME280;49815;51.618;0.336;2022-08-19T10:19:20;100650.67;;;24.89;33.42
63663;BME280;49815;51.618;0.336;2022-08-19T10:21:45;100655.55;;;24.74;33.03
63663;BME280;49815;51.618;0.336;2022-08-19T10:24:11;100650.74;;;24.82;33.28
63663;BME280;49815;51.618;0.336;2022-08-19T10:26:38;100654.94;;;24.56;33.32
63663;BME280;49815;51.618;0.336;2022-08-19T10:29:02;100651.25;;;25.70;32.34
63663;BME280;49815;51.618;0.336;2022-08-19T10:31:28;100651.35;;;26.31;31.47
63663;BME280;49815;51.618;0.336;2022-08-19T10:33:52;100652.02;;;26.12;30.77
63663;BME280;49815;51.618;0.336;2022-08-19T10:36:19;100644.74;;;26.62;30.91
63663;BME280;49815;51.618;0.336;2022-08-19T10:38:42;100656.73;;;26.39;30.73
63663;BME280;49815;51.618;0.336;2022-08-19T10:41:09;100655.48;;;26.18;31.04
63663;BME280;49815;51.618;0.336;2022-08-19T10:43:32;100658.04;;;25.27;31.24
63663;BME280;49815;51.618;0.336;2022-08-19T10:45:57;100655.06;;;25.94;31.18
63663;BME280;49815;51.618;0.336;2022-08-19T10:48:22;100659.95;;;26.22;31.49
63663;BME280;49815;51.618;0.336;2022-08-19T10:50:47;100656.32;;;26.92;30.89
63663;BME280;49815;51.618;0.336;2022-08-19T10:53:12;100659.77;;;25.92;31.24
63663;BME280;49815;51.618;0.336;2022-08-19T10:55:38;100652.38;;;26.12;30.74
63663;BME280;49815;51.618;0.336;2022-08-19T10:58:02;100653.91;;;27.52;29.88
63663;BME280;49815;51.618;0.336;2022-08-19T11:00:27;100654.10;;;26.70;30.02
63663;BME280;49815;51.618;0.336;2022-08-19T11:02:52;100653.11;;;26.19;30.58
63663;BME280;49815;51.618;0.336;2022-08-19T11:05:17;100657.01;;;26.00;30.75
63663;BME280;49815;51.618;0.336;2022-08-19T11:07:42;100657.66;;;26.01;31.47
63663;BME280;49815;51.618;0.336;2022-08-19T11:10:10;100652.96;;;26.50;30.41
63663;BME280;49815;51.618;0.336;2022-08-19T11:12:32;100659.50;;;27.17;29.60
63663;BME280;49815;51.618;0.336;2022-08-19T11:14:58;100656.66;;;25.84;30.53
63663;BME280;49815;51.618;0.336;2022-08-19T11:17:23;100649.03;;;26.31;30.06
63663;BME280;49815;51.618;0.336;2022-08-19T11:19:48;100657.55;;;25.67;31.39
63663;BME280;49815;51.618;0.336;2022-08-19T11:22:13;100658.42;;;25.89;31.18
63663;BME280;49815;51.618;0.336;2022-08-19T11:24:38;100654.81;;;27.39;29.59
63663;BME280;49815;51.618;0.336;2022-08-19T11:27:05;100658.55;;;27.37;29.02
63663;BME280;49815;51.618;0.336;2022-08-19T11:29:28;100662.04;;;26.92;29.51
63663;BME280;49815;51.618;0.336;2022-08-19T11:31:54;100663.92;;;26.84;29.64
63663;BME280;49815;51.618;0.336;2022-08-19T11:34:21;100667.54;;;27.29;29.73
63663;BME280;49815;51.618;0.336;2022-08-19T11:36:45;100663.36;;;26.55;29.89
63663;BME280;49815;51.618;0.336;2022-08-19T11:39:10;100663.43;;;26.45;29.78
63663;BME280;49815;51.618;0.336;2022-08-19T11:41:34;100671.86;;;26.94;29.69
63663;BME280;49815;51.618;0.336;2022-08-19T11:43:59;100668.42;;;26.61;30.11
63663;BME280;49815;51.618;0.336;2022-08-19T11:46:26;100676.37;;;26.31;30.55
63663;BME280;49815;51.618;0.336;2022-08-19T11:48:49;100669.64;;;27.03;29.82
63663;BME280;49815;51.618;0.336;2022-08-19T11:51:17;100668.61;;;26.88;29.13
63663;BME280;49815;51.618;0.336;2022-08-19T11:53:39;100681.55;;;25.38;30.62
63663;BME280;49815;51.618;0.336;2022-08-19T11:56:05;100682.45;;;26.29;30.31
63663;BME280;49815;51.618;0.336;2022-08-19T11:58:30;100687.54;;;26.04;29.92
63663;BME280;49815;51.618;0.336;2022-08-19T12:00:55;100683.97;;;25.73;29.92
63663;BME280;49815;51.618;0.336;2022-08-19T12:03:20;100679.22;;;27.07;28.72
63663;BME280;49815;51.618;0.336;2022-08-19T12:05:44;100681.98;;;26.36;29.30
63663;BME280;49815;51.618;0.336;2022-08-19T12:08:09;100676.59;;;27.22;28.22
63663;BME280;49815;51.618;0.336;2022-08-19T12:10:35;100683.71;;;27.09;28.13
63663;BME280;49815;51.618;0.336;2022-08-19T12:13:00;100687.36;;;27.79;27.15
63663;BME280;49815;51.618;0.336;2022-08-19T12:15:24;100683.52;;;28.15;26.83
63663;BME280;49815;51.618;0.336;2022-08-19T12:17:49;100685.23;;;28.08;27.36
63663;BME280;49815;51.618;0.336;2022-08-19T12:20:14;100683.08;;;27.62;27.69
63663;BME280;49815;51.618;0.336;2022-08-19T12:22:40;100678.34;;;27.25;28.01
63663;BME280;49815;51.618;0.336;2022-08-19T12:25:05;100675.20;;;26.85;27.65
63663;BME280;49815;51.618;0.336;2022-08-19T12:27:30;100679.66;;;26.92;27.36
63663;BME280;49815;51.618;0.336;2022-08-19T12:29:54;100675.70;;;26.73;27.33
63663;BME280;49815;51.618;0.336;2022-08-19T12:32:19;100677.59;;;27.63;26.93
63663;BME280;49815;51.618;0.336;2022-08-19T12:34:45;100674.36;;;28.10;26.12
63663;BME280;49815;51.618;0.336;2022-08-19T12:37:10;100679.05;;;28.17;25.81
63663;BME280;49815;51.618;0.336;2022-08-19T12:39:36;100677.72;;;27.80;26.01
63663;BME280;49815;51.618;0.336;2022-08-19T12:42:00;100674.65;;;27.09;26.30